sensor_id;sensor_type;location;lat;lon;timestamp;pressure;altitude;pressure_sealevel;temperature;humidity
21240;BME280;10778;48.962;9.018;2024-02-23T00:01:17;97064.03;;;5.88;91.68
21240;BME280;10778;48.962;9.018;2024-02-23T00:03:43;97075.28;;;5.88;91.00
21240;BME280;10778;48.962;9.018;2024-02-23T00:06:09;97067.78;;;5.85;91.54
21240;BME280;10778;48.962;9.018;2024-02-23T00:08:35;97079.38;;;5.91;90.83
21240;BME280;10778;48.962;9.018;2024-02-23T00:11:01;97074.00;;;5.92;88.77
21240;BME280;10778;48.962;9.018;2024-02-23T00:13:27;97090.47;;;5.93;89.38
21240;BME280;10778;48.962;9.018;2024-02-23T00:15:53;97072.38;;;5.91;88.09
21240;BME280;10778;48.962;9.018;2024-02-23T00:18:19;97082.81;;;5.91;87.74
21240;BME280;10778;48.962;9.018;2024-02-23T00:20:46;97090.28;;;5.86;87.20
21240;BME280;10778;48.962;9.018;2024-02-23T00:23:12;97091.91;;;5.87;86.73
21240;BME280;10778;48.962;9.018;2024-02-23T00:25:38;97086.03;;;5.85;86.55
21240;BME280;10778;48.962;9.018;2024-02-23T00:28:05;97103.13;;;5.79;87.48
21240;BME280;10778;48.962;9.018;2024-02-23T00:30:31;97087.34;;;5.81;86.82
21240;BME280;10778;48.962;9.018;2024-02-23T00:32:57;97099.88;;;5.77;85.69
21240;BME280;10778;48.962;9.018;2024-02-23T00:35:23;97107.88;;;5.76;86.31
21240;BME280;10778;48.962;9.018;2024-02-23T00:37:49;97114.34;;;5.72;86.29
21240;BME280;10778;48.962;9.018;2024-02-23T00:40:15;97125.00;;;5.78;85.34
21240;BME280;10778;48.962;9.018;2024-02-23T00:42:41;97133.34;;;5.82;83.92
21240;BME280;10778;48.962;9.018;2024-02-23T00:45:07;97134.13;;;5.74;85.03
21240;BME280;10778;48.962;9.018;2024-02-23T00:47:33;97131.56;;;5.82;84.28
21240;BME280;10778;48.962;9.018;2024-02-23T00:50:01;97129.72;;;5.75;85.13
21240;BME280;10778;48.962;9.018;2024-02-23T00:52:27;97123.34;;;5.77;84.37
21240;BME280;10778;48.962;9.018;2024-02-23T00:54:53;97129.09;;;5.81;83.81
21240;BME280;10778;48.962;9.018;2024-02-23T00:57:19;97133.19;;;5.83;82.63
21240;BME280;10778;48.962;9.018;2024-02-23T00:59:51;97143.56;;;5.75;83.95
21240;BME280;10778;48.962;9.018;2024-02-23T01:02:17;97139.34;;;5.74;84.19
21240;BME280;10778;48.962;9.018;2024-02-23T01:04:43;97183.22;;;5.79;82.20
21240;BME280;10778;48.962;9.018;2024-02-23T01:07:09;97162.81;;;5.74;82.40
21240;BME280;10778;48.962;9.018;2024-02-23T01:09:36;97171.41;;;5.66;83.35
21240;BME280;10778;48.962;9.018;2024-02-23T01:12:02;97159.53;;;5.72;82.52
21240;BME280;10778;48.962;9.018;2024-02-23T01:14:28;97181.19;;;5.64;83.33
21240;BME280;10778;48.962;9.018;2024-02-23T01:16:54;97157.56;;;5.66;81.32
21240;BME280;10778;48.962;9.018;2024-02-23T01:19:20;97160.31;;;5.64;81.45
21240;BME280;10778;48.962;9.018;2024-02-23T01:21:46;97146.94;;;5.59;82.17
21240;BME280;10778;48.962;9.018;2024-02-23T01:24:12;97145.78;;;5.62;81.94
21240;BME280;10778;48.962;9.018;2024-02-23T01:26:38;97146.44;;;5.64;81.36
21240;BME280;10778;48.962;9.018;2024-02-23T01:29:03;97157.06;;;5.62;82.29
21240;BME280;10778;48.962;9.018;2024-02-23T01:31:29;97178.59;;;5.64;81.33
21240;BME280;10778;48.962;9.018;2024-02-23T01:33:55;97165.53;;;5.64;81.30
21240;BME280;10778;48.962;9.018;2024-02-23T01:36:21;97173.38;;;5.64;82.13
21240;BME280;10778;48.962;9.018;2024-02-23T01:38:47;97180.66;;;5.61;81.90
21240;BME280;10778;48.962;9.018;2024-02-23T01:41:13;97179.69;;;5.62;81.60
21240;BME280;10778;48.962;9.018;2024-02-23T01:43:39;97182.16;;;5.63;82.52
21240;BME280;10778;48.962;9.018;2024-02-23T01:46:05;97180.84;;;5.59;81.74
21240;BME280;10778;48.962;9.018;2024-02-23T01:48:32;97195.00;;;5.57;83.09
21240;BME280;10778;48.962;9.018;2024-02-23T01:50:58;97200.75;;;5.60;83.59
21240;BME280;10778;48.962;9.018;2024-02-23T01:53:25;97194.88;;;5.58;82.55
21240;BME280;10778;48.962;9.018;2024-02-23T01:55:53;97203.34;;;5.60;82.25
21240;BME280;10778;48.962;9.018;2024-02-23T01:58:19;97195.22;;;5.63;79.95
21240;BME280;10778;48.962;9.018;2024-02-23T02:00:46;97201.53;;;5.61;80.85
21240;BME280;10778;48.962;9.018;2024-02-23T02:03:12;97209.53;;;5.59;80.81
21240;BME280;10778;48.962;9.018;2024-02-23T02:05:38;97195.00;;;5.57;80.73
21240;BME280;10778;48.962;9.018;2024-02-23T02:08:04;97212.59;;;5.54;80.87
21240;BME280;10778;48.962;9.018;2024-02-23T02:10:30;97220.88;;;5.50;81.68
21240;BME280;10778;48.962;9.018;2024-02-23T02:13:05;97219.56;;;5.46;80.45
21240;BME280;10778;48.962;9.018;2024-02-23T02:15:31;97216.59;;;5.40;82.06
21240;BME280;10778;48.962;9.018;2024-02-23T02:17:57;97221.28;;;5.37;82.36
21240;BME280;10778;48.962;9.018;2024-02-23T02:20:24;97219.44;;;5.29;83.90
21240;BME280;10778;48.962;9.018;2024-02-23T02:22:51;97229.78;;;5.21;84.81
21240;BME280;10778;48.962;9.018;2024-02-23T02:25:17;97231.06;;;5.17;85.59
21240;BME280;10778;48.962;9.018;2024-02-23T02:27:44;97226.59;;;5.09;86.79
21240;BME280;10778;48.962;9.018;2024-02-23T02:30:12;97223.97;;;5.09;87.69
21240;BME280;10778;48.962;9.018;2024-02-23T02:32:38;97231.31;;;5.05;86.72
21240;BME280;10778;48.962;9.018;2024-02-23T02:35:04;97232.78;;;5.08;86.97
21240;BME280;10778;48.962;9.018;2024-02-23T02:37:30;97239.69;;;4.99;87.58
21240;BME280;10778;48.962;9.018;2024-02-23T02:39:56;97238.06;;;4.98;87.96
21240;BME280;10778;48.962;9.018;2024-02-23T02:42:22;97228.38;;;4.90;88.22
21240;BME280;10778;48.962;9.018;2024-02-23T02:44:48;97229.72;;;4.94;88.76
21240;BME280;10778;48.962;9.018;2024-02-23T02:47:14;97217.94;;;4.90;88.17
21240;BME280;10778;48.962;9.018;2024-02-23T02:49:40;97228.91;;;4.94;88.20
21240;BME280;10778;48.962;9.018;2024-02-23T02:52:06;97221.22;;;4.92;88.53
21240;BME280;10778;48.962;9.018;2024-02-23T02:54:34;97218.31;;;4.95;87.07
21240;BME280;10778;48.962;9.018;2024-02-23T02:57:00;97224.66;;;4.93;87.37
21240;BME280;10778;48.962;9.018;2024-02-23T02:59:26;97228.25;;;4.92;87.51
21240;BME280;10778;48.962;9.018;2024-02-23T03:01:52;97234.25;;;4.92;86.92
21240;BME280;10778;48.962;9.018;2024-02-23T03:04:18;97228.81;;;4.86;86.96
21240;BME280;10778;48.962;9.018;2024-02-23T03:06:44;97230.84;;;4.92;86.77
21240;BME280;10778;48.962;9.018;2024-02-23T03:09:25;97238.50;;;4.93;85.63
21240;BME280;10778;48.962;9.018;2024-02-23T03:11:51;97240.75;;;5.06;83.28
21240;BME280;10778;48.962;9.018;2024-02-23T03:14:17;97235.72;;;5.13;82.12
21240;BME280;10778;48.962;9.018;2024-02-23T03:16:44;97225.84;;;5.17;81.25
21240;BME280;10778;48.962;9.018;2024-02-23T03:19:10;97222.44;;;5.16;81.04
21240;BME280;10778;48.962;9.018;2024-02-23T03:21:36;97228.00;;;5.21;81.36
21240;BME280;10778;48.962;9.018;2024-02-23T03:24:02;97224.81;;;5.09;82.15
21240;BME280;10778;48.962;9.018;2024-02-23T03:26:28;97208.78;;;5.04;81.82
21240;BME280;10778;48.962;9.018;2024-02-23T03:28:54;97215.50;;;5.07;81.17
21240;BME280;10778;48.962;9.018;2024-02-23T03:31:20;97209.16;;;5.09;80.02
21240;BME280;10778;48.962;9.018;2024-02-23T03:33:51;97209.63;;;5.05;81.00
21240;BME280;10778;48.962;9.018;2024-02-23T03:36:17;97215.94;;;5.02;79.85
21240;BME280;10778;48.962;9.018;2024-02-23T03:38:43;97217.13;;;5.08;79.13
21240;BME280;10778;48.962;9.018;2024-02-23T03:41:09;97212.66;;;5.00;79.80
21240;BME280;10778;48.962;9.018;2024-02-23T03:43:35;97215.13;;;5.02;79.27
21240;BME280;10778;48.962;9.018;2024-02-23T03:46:03;97212.81;;;4.98;80.19
21240;BME280;10778;48.962;9.018;2024-02-23T03:48:29;97208.72;;;4.96;79.32
21240;BME280;10778;48.962;9.018;2024-02-23T03:50:55;97226.81;;;4.97;79.51
21240;BME280;10778;48.962;9.018;2024-02-23T03:53:21;97221.75;;;4.96;79.58
21240;BME280;10778;48.962;9.018;2024-02-23T03:55:47;97224.97;;;4.90;80.30
21240;BME280;10778;48.962;9.018;2024-02-23T03:58:13;97224.66;;;4.93;78.91
21240;BME280;10778;48.962;9.018;2024-02-23T04:00:39;97235.38;;;4.90;79.52
21240;BME280;10778;48.962;9.018;2024-02-23T04:03:05;97240.00;;;4.96;79.22
21240;BME280;10778;48.962;9.018;2024-02-23T04:05:31;97251.47;;;4.85;79.35
21240;BME280;10778;48.962;9.018;2024-02-23T04:07:57;97245.88;;;4.80;79.56
21240;BME280;10778;48.962;9.018;2024-02-23T04:10:23;97239.97;;;4.78;80.36
21240;BME280;10778;48.962;9.018;2024-02-23T04:12:49;97229.84;;;4.75;80.96
21240;BME280;10778;48.962;9.018;2024-02-23T04:15:15;97231.41;;;4.67;80.48
21240;BME280;10778;48.962;9.018;2024-02-23T04:17:41;97221.91;;;4.76;78.62
21240;BME280;10778;48.962;9.018;2024-02-23T04:20:08;97233.97;;;4.77;79.67
21240;BME280;10778;48.962;9.018;2024-02-23T04:22:36;97234.81;;;4.68;79.24
21240;BME280;10778;48.962;9.018;2024-02-23T04:25:02;97238.16;;;4.60;79.15
21240;BME280;10778;48.962;9.018;2024-02-23T04:27:28;97233.78;;;4.61;79.13
21240;BME280;10778;48.962;9.018;2024-02-23T04:29:54;97222.53;;;4.60;80.00
21240;BME280;10778;48.962;9.018;2024-02-23T04:32:20;97236.25;;;4.62;78.59
21240;BME280;10778;48.962;9.018;2024-02-23T04:34:46;97228.56;;;4.61;78.03
21240;BME280;10778;48.962;9.018;2024-02-23T04:37:12;97217.63;;;4.57;78.11
21240;BME280;10778;48.962;9.018;2024-02-23T04:39:38;97215.69;;;4.59;77.70
21240;BME280;10778;48.962;9.018;2024-02-23T04:42:07;97216.16;;;4.54;76.76
21240;BME280;10778;48.962;9.018;2024-02-23T04:44:35;97217.50;;;4.59;76.02
21240;BME280;10778;48.962;9.018;2024-02-23T04:47:01;97220.28;;;4.47;77.71
21240;BME280;10778;48.962;9.018;2024-02-23T04:49:27;97229.69;;;4.58;76.73
21240;BME280;10778;48.962;9.018;2024-02-23T04:51:53;97235.97;;;4.37;77.17
21240;BME280;10778;48.962;9.018;2024-02-23T04:54:20;97241.31;;;4.36;76.55
21240;BME280;10778;48.962;9.018;2024-02-23T04:56:46;97242.28;;;4.35;77.78
21240;BME280;10778;48.962;9.018;2024-02-23T04:59:13;97235.16;;;4.37;75.39
21240;BME280;10778;48.962;9.018;2024-02-23T05:01:39;97239.09;;;4.41;75.78
21240;BME280;10778;48.962;9.018;2024-02-23T05:04:05;97238.63;;;4.27;76.36
21240;BME280;10778;48.962;9.018;2024-02-23T05:06:31;97234.13;;;4.20;77.83
21240;BME280;10778;48.962;9.018;2024-02-23T05:08:57;97240.72;;;4.14;80.00
21240;BME280;10778;48.962;9.018;2024-02-23T05:11:23;97235.72;;;4.03;79.64
21240;BME280;10778;48.962;9.018;2024-02-23T05:13:49;97226.25;;;4.02;79.84
21240;BME280;10778;48.962;9.018;2024-02-23T05:16:15;97237.34;;;4.04;79.43
21240;BME280;10778;48.962;9.018;2024-02-23T05:18:42;97224.22;;;3.95;80.32
21240;BME280;10778;48.962;9.018;2024-02-23T05:21:09;97223.00;;;3.90;79.79
21240;BME280;10778;48.962;9.018;2024-02-23T05:23:35;97237.81;;;3.89;79.37
21240;BME280;10778;48.962;9.018;2024-02-23T05:26:01;97234.66;;;3.86;79.53
21240;BME280;10778;48.962;9.018;2024-02-23T05:28:27;97238.50;;;3.81;80.97
21240;BME280;10778;48.962;9.018;2024-02-23T05:30:54;97236.88;;;3.80;80.31
21240;BME280;10778;48.962;9.018;2024-02-23T05:33:20;97233.72;;;3.77;79.51
21240;BME280;10778;48.962;9.018;2024-02-23T05:35:46;97247.97;;;3.82;82.42
21240;BME280;10778;48.962;9.018;2024-02-23T05:38:14;97244.41;;;3.83;80.98
21240;BME280;10778;48.962;9.018;2024-02-23T05:40:41;97244.66;;;3.90;79.09
21240;BME280;10778;48.962;9.018;2024-02-23T05:43:07;97249.56;;;3.93;77.27
21240;BME280;10778;48.962;9.018;2024-02-23T05:45:33;97245.03;;;3.95;78.00
21240;BME280;10778;48.962;9.018;2024-02-23T05:47:59;97255.78;;;4.10;76.51
21240;BME280;10778;48.962;9.018;2024-02-23T05:50:25;97252.69;;;4.07;75.63
21240;BME280;10778;48.962;9.018;2024-02-23T05:52:51;97262.66;;;4.11;76.37
21240;BME280;10778;48.962;9.018;2024-02-23T05:55:19;97254.88;;;4.02;76.82
21240;BME280;10778;48.962;9.018;2024-02-23T05:57:45;97258.63;;;3.89;77.98
21240;BME280;10778;48.962;9.018;2024-02-23T06:00:11;97257.13;;;3.87;78.35
21240;BME280;10778;48.962;9.018;2024-02-23T06:02:38;97263.16;;;3.87;78.36
21240;BME280;10778;48.962;9.018;2024-02-23T06:05:05;97268.78;;;3.82;77.91
21240;BME280;10778;48.962;9.018;2024-02-23T06:07:33;97269.47;;;3.75;79.03
21240;BME280;10778;48.962;9.018;2024-02-23T06:10:00;97285.50;;;3.70;79.76
21240;BME280;10778;48.962;9.018;2024-02-23T06:12:26;97285.78;;;3.67;80.05
21240;BME280;10778;48.962;9.018;2024-02-23T06:14:52;97281.53;;;3.66;79.69
21240;BME280;10778;48.962;9.018;2024-02-23T06:17:18;97282.22;;;3.58;79.78
21240;BME280;10778;48.962;9.018;2024-02-23T06:19:44;97286.84;;;3.64;79.58
21240;BME280;10778;48.962;9.018;2024-02-23T06:22:10;97291.38;;;3.62;79.75
21240;BME280;10778;48.962;9.018;2024-02-23T06:24:37;97301.66;;;3.64;79.12
21240;BME280;10778;48.962;9.018;2024-02-23T06:27:04;97308.63;;;3.63;79.62
21240;BME280;10778;48.962;9.018;2024-02-23T06:29:30;97312.06;;;3.54;80.20
21240;BME280;10778;48.962;9.018;2024-02-23T06:31:56;97306.19;;;3.62;79.75
21240;BME280;10778;48.962;9.018;2024-02-23T06:34:22;97319.03;;;3.53;80.29
21240;BME280;10778;48.962;9.018;2024-02-23T06:36:48;97319.19;;;3.52;80.64
21240;BME280;10778;48.962;9.018;2024-02-23T06:39:14;97330.94;;;3.56;80.08
21240;BME280;10778;48.962;9.018;2024-02-23T06:41:43;97322.03;;;3.49;80.11
21240;BME280;10778;48.962;9.018;2024-02-23T06:44:09;97322.31;;;3.55;79.56
21240;BME280;10778;48.962;9.018;2024-02-23T06:46:35;97319.59;;;3.57;79.58
21240;BME280;10778;48.962;9.018;2024-02-23T06:49:01;97319.19;;;3.52;79.77
21240;BME280;10778;48.962;9.018;2024-02-23T06:51:27;97323.84;;;3.58;80.15
21240;BME280;10778;48.962;9.018;2024-02-23T06:53:53;97327.13;;;3.60;80.47
21240;BME280;10778;48.962;9.018;2024-02-23T06:56:19;97325.75;;;3.56;80.02
21240;BME280;10778;48.962;9.018;2024-02-23T06:58:45;97324.91;;;3.55;80.77
21240;BME280;10778;48.962;9.018;2024-02-23T07:01:11;97329.84;;;3.49;80.69
21240;BME280;10778;48.962;9.018;2024-02-23T07:03:38;97329.44;;;3.53;80.63
21240;BME280;10778;48.962;9.018;2024-02-23T07:06:06;97320.00;;;3.52;80.34
21240;BME280;10778;48.962;9.018;2024-02-23T07:08:32;97322.75;;;3.61;80.83
21240;BME280;10778;48.962;9.018;2024-02-23T07:10:57;97327.25;;;3.59;80.33
21240;BME280;10778;48.962;9.018;2024-02-23T07:13:23;97337.63;;;3.59;80.34
21240;BME280;10778;48.962;9.018;2024-02-23T07:15:49;97335.03;;;3.59;80.71
21240;BME280;10778;48.962;9.018;2024-02-23T07:18:15;97347.78;;;3.52;81.69
21240;BME280;10778;48.962;9.018;2024-02-23T07:20:41;97347.78;;;3.62;81.52
21240;BME280;10778;48.962;9.018;2024-02-23T07:23:07;97337.66;;;3.68;81.64
21240;BME280;10778;48.962;9.018;2024-02-23T07:25:34;97335.56;;;3.82;82.37
21240;BME280;10778;48.962;9.018;2024-02-23T07:28:00;97336.25;;;3.94;81.46
21240;BME280;10778;48.962;9.018;2024-02-23T07:30:26;97328.69;;;4.01;81.03
21240;BME280;10778;48.962;9.018;2024-02-23T07:32:52;97328.44;;;4.04;79.96
21240;BME280;10778;48.962;9.018;2024-02-23T07:35:19;97332.69;;;4.05;79.85
21240;BME280;10778;48.962;9.018;2024-02-23T07:37:45;97334.56;;;4.12;81.33
21240;BME280;10778;48.962;9.018;2024-02-23T07:40:11;97327.97;;;4.18;81.26
21240;BME280;10778;48.962;9.018;2024-02-23T07:42:38;97327.25;;;4.26;81.60
21240;BME280;10778;48.962;9.018;2024-02-23T07:45:05;97329.56;;;4.39;82.47
21240;BME280;10778;48.962;9.018;2024-02-23T07:47:32;97328.81;;;4.57;81.83
21240;BME280;10778;48.962;9.018;2024-02-23T07:49:58;97326.84;;;4.68;80.37
21240;BME280;10778;48.962;9.018;2024-02-23T07:52:25;97319.91;;;5.05;79.16
21240;BME280;10778;48.962;9.018;2024-02-23T07:54:52;97317.44;;;5.22;78.26
21240;BME280;10778;48.962;9.018;2024-02-23T07:57:21;97312.81;;;5.70;77.17
21240;BME280;10778;48.962;9.018;2024-02-23T07:59:47;97309.63;;;6.29;76.37
21240;BME280;10778;48.962;9.018;2024-02-23T08:02:14;97308.56;;;6.14;72.98
21240;BME280;10778;48.962;9.018;2024-02-23T08:04:41;97302.47;;;6.05;74.64
21240;BME280;10778;48.962;9.018;2024-02-23T08:07:08;97307.06;;;6.72;72.50
21240;BME280;10778;48.962;9.018;2024-02-23T08:09:34;97312.91;;;6.31;73.87
21240;BME280;10778;48.962;9.018;2024-02-23T08:12:00;97308.00;;;6.63;73.74
21240;BME280;10778;48.962;9.018;2024-02-23T08:14:26;97315.69;;;6.03;75.07
21240;BME280;10778;48.962;9.018;2024-02-23T08:16:52;97310.34;;;7.75;72.80
21240;BME280;10778;48.962;9.018;2024-02-23T08:19:18;97321.28;;;7.71;83.51
21240;BME280;10778;48.962;9.018;2024-02-23T08:21:44;97312.03;;;9.21;75.57
21240;BME280;10778;48.962;9.018;2024-02-23T08:24:10;97306.03;;;9.35;67.21
21240;BME280;10778;48.962;9.018;2024-02-23T08:26:36;97311.28;;;9.59;68.16
21240;BME280;10778;48.962;9.018;2024-02-23T08:29:04;97290.16;;;12.04;62.30
21240;BME280;10778;48.962;9.018;2024-02-23T08:31:30;97298.66;;;9.92;63.90
21240;BME280;10778;48.962;9.018;2024-02-23T08:33:56;97287.94;;;10.62;61.96
21240;BME280;10778;48.962;9.018;2024-02-23T08:36:22;97288.50;;;10.58;60.78
21240;BME280;10778;48.962;9.018;2024-02-23T08:38:48;97280.75;;;10.11;60.61
21240;BME280;10778;48.962;9.018;2024-02-23T08:41:14;97281.22;;;10.60;59.68
21240;BME280;10778;48.962;9.018;2024-02-23T08:43:40;97278.72;;;9.83;62.33
21240;BME280;10778;48.962;9.018;2024-02-23T08:46:06;97266.97;;;10.24;61.34
21240;BME280;10778;48.962;9.018;2024-02-23T08:48:32;97258.56;;;10.14;61.93
21240;BME280;10778;48.962;9.018;2024-02-23T08:50:58;97252.13;;;9.86;60.92
21240;BME280;10778;48.962;9.018;2024-02-23T08:53:24;97257.16;;;9.34;63.08
21240;BME280;10778;48.962;9.018;2024-02-23T08:55:50;97262.22;;;9.74;62.94
21240;BME280;10778;48.962;9.018;2024-02-23T08:58:16;97256.16;;;9.12;62.86
21240;BME280;10778;48.962;9.018;2024-02-23T09:00:42;97276.44;;;9.18;61.82
21240;BME280;10778;48.962;9.018;2024-02-23T09:03:08;97274.41;;;9.29;61.02
21240;BME280;10778;48.962;9.018;2024-02-23T09:05:34;97281.47;;;10.35;59.81
21240;BME280;10778;48.962;9.018;2024-02-23T09:08:00;97273.72;;;10.57;59.95
21240;BME280;10778;48.962;9.018;2024-02-23T09:10:26;97282.56;;;10.25;59.05
21240;BME280;10778;48.962;9.018;2024-02-23T09:12:52;97274.63;;;11.44;57.50
21240;BME280;10778;48.962;9.018;2024-02-23T09:15:18;97279.91;;;11.94;54.68
21240;BME280;10778;48.962;9.018;2024-02-23T09:17:44;97277.19;;;12.09;54.26
21240;BME280;10778;48.962;9.018;2024-02-23T09:20:10;97269.03;;;12.33;53.57
21240;BME280;10778;48.962;9.018;2024-02-23T09:22:36;97276.44;;;11.94;52.24
21240;BME280;10778;48.962;9.018;2024-02-23T09:25:03;97274.75;;;12.99;52.03
21240;BME280;10778;48.962;9.018;2024-02-23T09:27:31;97276.75;;;12.34;53.91
21240;BME280;10778;48.962;9.018;2024-02-23T09:29:57;97280.16;;;12.28;54.12
21240;BME280;10778;48.962;9.018;2024-02-23T09:32:24;97289.38;;;10.35;57.83
21240;BME280;10778;48.962;9.018;2024-02-23T09:34:50;97293.56;;;10.44;58.86
21240;BME280;10778;48.962;9.018;2024-02-23T09:37:16;97290.06;;;8.90;62.17
21240;BME280;10778;48.962;9.018;2024-02-23T09:39:42;97298.75;;;8.91;63.63
21240;BME280;10778;48.962;9.018;2024-02-23T09:42:10;97286.84;;;8.80;64.11
21240;BME280;10778;48.962;9.018;2024-02-23T09:44:37;97288.63;;;9.58;61.26
21240;BME280;10778;48.962;9.018;2024-02-23T09:47:03;97290.34;;;9.65;61.67
21240;BME280;10778;48.962;9.018;2024-02-23T09:49:38;97294.13;;;8.61;64.85
21240;BME280;10778;48.962;9.018;2024-02-23T09:52:07;97311.78;;;7.86;67.32
21240;BME280;10778;48.962;9.018;2024-02-23T09:54:33;97310.81;;;7.46;69.41
21240;BME280;10778;48.962;9.018;2024-02-23T09:57:01;97314.88;;;7.23;69.55
21240;BME280;10778;48.962;9.018;2024-02-23T09:59:31;97323.44;;;6.82;70.04
21240;BME280;10778;48.962;9.018;2024-02-23T10:01:57;97313.31;;;6.88;70.45
21240;BME280;10778;48.962;9.018;2024-02-23T10:04:24;97318.97;;;6.32;72.69
21240;BME280;10778;48.962;9.018;2024-02-23T10:06:51;97312.00;;;6.49;73.32
21240;BME280;10778;48.962;9.018;2024-02-23T10:09:17;97315.94;;;6.18;73.43
21240;BME280;10778;48.962;9.018;2024-02-23T10:11:44;97322.25;;;6.34;72.87
21240;BME280;10778;48.962;9.018;2024-02-23T10:14:10;97319.97;;;6.39;73.04
21240;BME280;10778;48.962;9.018;2024-02-23T10:16:37;97315.22;;;6.34;72.84
21240;BME280;10778;48.962;9.018;2024-02-23T10:19:03;97309.16;;;6.25;73.81
21240;BME280;10778;48.962;9.018;2024-02-23T10:21:29;97307.88;;;6.38;73.82
21240;BME280;10778;48.962;9.018;2024-02-23T10:23:55;97311.75;;;6.25;72.70
21240;BME280;10778;48.962;9.018;2024-02-23T10:26:21;97319.13;;;6.04;73.59
21240;BME280;10778;48.962;9.018;2024-02-23T10:28:48;97327.53;;;5.97;73.44
21240;BME280;10778;48.962;9.018;2024-02-23T10:31:14;97331.06;;;6.41;73.14
21240;BME280;10778;48.962;9.018;2024-02-23T10:33:41;97330.41;;;6.39;72.31
21240;BME280;10778;48.962;9.018;2024-02-23T10:36:08;97326.34;;;6.10;71.77
21240;BME280;10778;48.962;9.018;2024-02-23T10:38:37;97325.84;;;6.41;72.94
21240;BME280;10778;48.962;9.018;2024-02-23T10:41:05;97321.19;;;6.53;72.27
21240;BME280;10778;48.962;9.018;2024-02-23T10:43:41;97325.00;;;6.67;71.73
21240;BME280;10778;48.962;9.018;2024-02-23T10:46:11;97320.25;;;6.62;71.89
21240;BME280;10778;48.962;9.018;2024-02-23T10:48:43;97318.38;;;6.46;71.36
21240;BME280;10778;48.962;9.018;2024-02-23T10:51:10;97315.34;;;6.67;71.76
21240;BME280;10778;48.962;9.018;2024-02-23T10:53:39;97322.66;;;6.55;70.36
21240;BME280;10778;48.962;9.018;2024-02-23T10:56:06;97322.28;;;6.42;71.08
21240;BME280;10778;48.962;9.018;2024-02-23T10:58:33;97318.19;;;6.39;71.91
21240;BME280;10778;48.962;9.018;2024-02-23T11:01:01;97313.47;;;6.43;71.40
21240;BME280;10778;48.962;9.018;2024-02-23T11:03:32;97313.38;;;6.61;71.38
21240;BME280;10778;48.962;9.018;2024-02-23T11:06:02;97312.00;;;6.49;72.55
21240;BME280;10778;48.962;9.018;2024-02-23T11:08:29;97315.19;;;6.61;71.77
21240;BME280;10778;48.962;9.018;2024-02-23T11:10:55;97313.81;;;6.48;71.70
21240;BME280;10778;48.962;9.018;2024-02-23T11:13:30;97309.00;;;6.70;70.84
21240;BME280;10778;48.962;9.018;2024-02-23T11:16:06;97307.03;;;6.64;70.29
21240;BME280;10778;48.962;9.018;2024-02-23T11:18:35;97297.66;;;6.96;70.58
21240;BME280;10778;48.962;9.018;2024-02-23T11:21:05;97301.13;;;7.05;70.60
21240;BME280;10778;48.962;9.018;2024-02-23T11:23:45;97287.41;;;7.19;68.75
21240;BME280;10778;48.962;9.018;2024-02-23T11:26:14;97298.38;;;7.31;69.05
21240;BME280;10778;48.962;9.018;2024-02-23T11:28:43;97294.25;;;7.04;68.78
21240;BME280;10778;48.962;9.018;2024-02-23T11:31:14;97305.94;;;6.83;69.14
21240;BME280;10778;48.962;9.018;2024-02-23T11:33:40;97297.00;;;7.02;69.13
21240;BME280;10778;48.962;9.018;2024-02-23T11:36:10;97296.38;;;7.00;68.30
21240;BME280;10778;48.962;9.018;2024-02-23T11:38:36;97303.22;;;7.01;68.47
21240;BME280;10778;48.962;9.018;2024-02-23T11:41:04;97301.81;;;7.32;68.41
21240;BME280;10778;48.962;9.018;2024-02-23T11:43:34;97297.72;;;7.54;67.75
21240;BME280;10778;48.962;9.018;2024-02-23T11:46:01;97285.94;;;7.33;67.67
21240;BME280;10778;48.962;9.018;2024-02-23T11:48:27;97286.44;;;7.29;67.33
21240;BME280;10778;48.962;9.018;2024-02-23T11:50:53;97289.53;;;7.24;67.73
21240;BME280;10778;48.962;9.018;2024-02-23T11:53:20;97288.25;;;7.53;66.46
21240;BME280;10778;48.962;9.018;2024-02-23T11:55:47;97279.91;;;7.58;66.08
21240;BME280;10778;48.962;9.018;2024-02-23T11:58:15;97279.56;;;7.69;65.66
21240;BME280;10778;48.962;9.018;2024-02-23T12:00:41;97280.38;;;7.78;65.22
21240;BME280;10778;48.962;9.018;2024-02-23T12:03:07;97276.13;;;7.68;66.41
21240;BME280;10778;48.962;9.018;2024-02-23T12:05:33;97280.22;;;7.63;66.70
21240;BME280;10778;48.962;9.018;2024-02-23T12:07:59;97271.25;;;7.65;67.06
21240;BME280;10778;48.962;9.018;2024-02-23T12:10:25;97265.16;;;7.81;67.08
21240;BME280;10778;48.962;9.018;2024-02-23T12:12:53;97257.81;;;7.85;65.57
21240;BME280;10778;48.962;9.018;2024-02-23T12:15:19;97258.25;;;7.97;65.40
21240;BME280;10778;48.962;9.018;2024-02-23T12:17:49;97252.88;;;8.47;65.64
21240;BME280;10778;48.962;9.018;2024-02-23T12:20:15;97255.41;;;8.23;64.22
21240;BME280;10778;48.962;9.018;2024-02-23T12:22:41;97253.66;;;8.07;63.54
21240;BME280;10778;48.962;9.018;2024-02-23T12:25:08;97247.44;;;8.65;62.82
21240;BME280;10778;48.962;9.018;2024-02-23T12:27:34;97248.31;;;8.40;63.57
21240;BME280;10778;48.962;9.018;2024-02-23T12:30:00;97250.84;;;8.17;63.93
21240;BME280;10778;48.962;9.018;2024-02-23T12:32:26;97251.09;;;7.91;63.72
21240;BME280;10778;48.962;9.018;2024-02-23T12:34:52;97248.38;;;8.16;63.91
21240;BME280;10778;48.962;9.018;2024-02-23T12:37:19;97253.06;;;7.89;64.94
21240;BME280;10778;48.962;9.018;2024-02-23T12:39:45;97252.56;;;7.85;63.98
21240;BME280;10778;48.962;9.018;2024-02-23T12:42:11;97256.16;;;7.84;64.93
21240;BME280;10778;48.962;9.018;2024-02-23T12:44:37;97265.81;;;7.67;65.30
21240;BME280;10778;48.962;9.018;2024-02-23T12:47:03;97258.00;;;7.59;65.75
21240;BME280;10778;48.962;9.018;2024-02-23T12:49:29;97250.28;;;7.74;65.42
21240;BME280;10778;48.962;9.018;2024-02-23T12:51:56;97260.28;;;7.53;65.22
21240;BME280;10778;48.962;9.018;2024-02-23T12:54:22;97260.78;;;7.49;65.47
21240;BME280;10778;48.962;9.018;2024-02-23T12:56:48;97266.00;;;7.40;66.75
21240;BME280;10778;48.962;9.018;2024-02-23T12:59:15;97266.00;;;7.16;66.25
21240;BME280;10778;48.962;9.018;2024-02-23T13:01:41;97258.13;;;7.24;67.54
21240;BME280;10778;48.962;9.018;2024-02-23T13:04:07;97273.19;;;7.30;68.06
21240;BME280;10778;48.962;9.018;2024-02-23T13:06:37;97264.03;;;7.34;67.36